Time;durP1;ratioP1;P1;durP2;ratioP2;P2;SDS_P1;SDS_P2;PMS_P1;PMS_P2;Temp;Humidity;BMP_temperature;BMP_pressure;BME280_temperature;BME280_humidity;BME280_pressure;Samples;Min_cycle;Max_cycle;Signal;HPM_P1;HPM_P2
2022/06/08 00:00:17;;;;;;;18.43;15.30;;;13.50;99.90;;;;;;4935707;29;20229;-89
2022/06/08 00:02:47;;;;;;;17.87;14.43;;;13.60;99.90;;;;;;4951953;29;20209;-89
2022/06/08 00:05:15;;;;;;;19.60;14.97;;;13.60;99.90;;;;;;4953109;29;20292;-89
2022/06/08 00:07:42;;;;;;;18.37;14.73;;;13.70;99.90;;;;;;4952744;29;20244;-89
2022/06/08 00:10:11;;;;;;;15.23;12.97;;;13.70;99.90;;;;;;4953166;29;20273;-89
2022/06/08 00:12:38;;;;;;;22.97;13.20;;;13.80;99.90;;;;;;4955467;29;20280;-89
2022/06/08 00:15:06;;;;;;;16.43;10.70;;;13.80;99.90;;;;;;4956993;28;20213;-90
2022/06/08 00:17:33;;;;;;;13.53;10.13;;;13.90;99.90;;;;;;4953461;29;20201;-89
2022/06/08 00:20:00;;;;;;;13.43;8.70;;;13.90;99.90;;;;;;4950268;29;20202;-89
2022/06/08 00:22:27;;;;;;;9.47;7.70;;;14.00;99.90;;;;;;4955569;28;20209;-90
2022/06/08 00:24:55;;;;;;;8.00;6.53;;;14.10;99.90;;;;;;4957328;29;20265;-89
2022/06/08 00:27:25;;;;;;;9.17;6.20;;;14.10;99.90;;;;;;4956628;29;20939;-90
2022/06/08 00:29:52;;;;;;;9.20;5.53;;;14.20;99.90;;;;;;4956098;29;20209;-89
2022/06/08 00:32:19;;;;;;;5.47;4.87;;;14.20;99.90;;;;;;4955785;29;20217;-89
2022/06/08 00:34:45;;;;;;;5.77;4.63;;;14.30;99.90;;;;;;4954345;29;20211;-89
2022/06/08 00:37:12;;;;;;;6.97;4.60;;;14.30;99.90;;;;;;4955867;28;20485;-88
2022/06/08 00:39:39;;;;;;;8.20;4.43;;;14.40;99.90;;;;;;4956557;29;20205;-90
2022/06/08 00:42:09;;;;;;;7.93;4.03;;;14.40;99.90;;;;;;4956208;28;20221;-89
2022/06/08 00:44:41;;;;;;;5.33;4.07;;;14.40;99.90;;;;;;4955980;29;20217;-88
2022/06/08 00:47:10;;;;;;;6.47;3.90;;;14.40;99.90;;;;;;4955780;29;20236;-88
2022/06/08 00:49:43;;;;;;;5.93;5.00;;;14.50;99.90;;;;;;4943932;28;20249;-88
2022/06/08 00:52:12;;;;;;;9.95;5.82;;;14.50;99.90;;;;;;4936203;29;20213;-88
2022/06/08 00:54:42;;;;;;;6.22;5.05;;;14.50;99.90;;;;;;4949972;28;20232;-88
2022/06/08 00:57:13;;;;;;;9.00;5.57;;;14.40;99.90;;;;;;4955784;29;20209;-89
2022/06/08 00:59:48;;;;;;;9.47;5.77;;;14.50;99.90;;;;;;4956206;28;20300;-89
2022/06/08 01:02:15;;;;;;;7.80;5.83;;;14.50;99.90;;;;;;4955834;29;20287;-89
2022/06/08 01:04:42;;;;;;;9.27;6.97;;;14.50;99.90;;;;;;4955345;29;20209;-89
2022/06/08 01:07:17;;;;;;;7.73;6.30;;;14.50;99.90;;;;;;4955457;29;20257;-89
2022/06/08 01:09:44;;;;;;;10.37;6.27;;;14.50;99.90;;;;;;4955450;29;20272;-89
2022/06/08 01:12:14;;;;;;;5.80;5.20;;;14.50;99.90;;;;;;4954914;29;20205;-89
2022/06/08 01:14:44;;;;;;;7.17;6.10;;;14.50;99.90;;;;;;4955594;28;20213;-89
2022/06/08 01:17:14;;;;;;;7.17;5.40;;;14.50;99.90;;;;;;4955595;29;20205;-90
2022/06/08 01:19:45;;;;;;;6.57;5.43;;;14.50;99.90;;;;;;4955063;29;20220;-89
2022/06/08 01:22:16;;;;;;;7.30;5.05;;;14.50;99.90;;;;;;4955276;28;20221;-90
2022/06/08 01:24:46;;;;;;;8.20;6.10;;;14.50;99.90;;;;;;4955595;29;20596;-89
2022/06/08 01:27:21;;;;;;;6.93;5.97;;;14.50;99.90;;;;;;4955463;29;20233;-88
2022/06/08 01:29:59;;;;;;;11.93;8.00;;;14.50;99.90;;;;;;4956305;29;20312;-88
2022/06/08 01:32:33;;;;;;;10.00;6.47;;;14.50;99.90;;;;;;4955793;28;20227;-88
2022/06/08 01:35:28;;;;;;;7.93;7.13;;;14.50;99.90;;;;;;4955690;29;20308;-90
2022/06/08 01:38:08;;;;;;;7.07;5.87;;;14.50;99.90;;;;;;4947335;29;20236;-89
2022/06/08 01:40:56;;;;;;;5.97;5.40;;;14.50;99.90;;;;;;4956027;29;20202;-89
2022/06/08 01:43:33;;;;;;;11.87;6.87;;;14.50;99.90;;;;;;4955455;29;20194;-88
2022/06/08 01:46:18;;;;;;;8.50;5.87;;;14.40;99.90;;;;;;4956209;29;20296;-88
2022/06/08 01:49:11;;;;;;;8.03;5.87;;;14.50;99.90;;;;;;4954677;28;20264;-88
2022/06/08 01:52:12;;;;;;;5.87;4.23;;;14.40;99.90;;;;;;4947603;29;20594;-90
2022/06/08 01:54:53;;;;;;;7.20;4.77;;;14.40;99.90;;;;;;4925545;29;20217;-90
2022/06/08 01:57:35;;;;;;;4.60;4.03;;;14.40;99.90;;;;;;4931570;29;20198;-89
2022/06/08 02:00:07;;;;;;;5.43;4.17;;;14.30;99.90;;;;;;4943925;29;20217;-90
2022/06/08 02:02:42;;;;;;;5.87;3.50;;;14.30;99.90;;;;;;4956576;29;20209;-90
2022/06/08 02:05:16;;;;;;;5.30;3.90;;;14.30;99.90;;;;;;4956309;29;20583;-91
2022/06/08 02:07:47;;;;;;;7.37;4.10;;;14.30;99.90;;;;;;4956207;29;20311;-90
2022/06/08 02:10:23;;;;;;;6.50;4.07;;;14.20;99.90;;;;;;4955651;29;20209;-90
2022/06/08 02:12:55;;;;;;;6.93;4.15;;;14.20;99.90;;;;;;4956413;29;20215;-89
2022/06/08 02:15:26;;;;;;;7.60;5.43;;;14.10;99.90;;;;;;4956221;29;20264;-89
2022/06/08 02:17:56;;;;;;;13.30;6.40;;;14.20;99.90;;;;;;4963065;28;20204;-89
2022/06/08 02:20:28;;;;;;;14.07;7.87;;;14.20;99.90;;;;;;4956075;29;20205;-89
2022/06/08 02:22:59;;;;;;;16.93;8.00;;;14.20;99.90;;;;;;4955891;29;20517;-88
2022/06/08 02:25:31;;;;;;;10.37;7.87;;;14.30;99.90;;;;;;4955280;29;20232;-88
2022/06/08 02:28:03;;;;;;;14.60;8.80;;;14.30;99.90;;;;;;4981752;28;20264;-88
2022/06/08 02:30:34;;;;;;;15.17;10.37;;;14.40;99.90;;;;;;4992068;28;20201;-88
2022/06/08 02:35:54;;;;;;;16.70;9.93;;;14.30;99.90;;;;;;4963808;28;20284;-89
2022/06/08 02:38:26;;;;;;;15.13;10.70;;;14.40;99.90;;;;;;4957420;29;20213;-90
2022/06/08 02:40:58;;;;;;;19.60;13.10;;;14.40;99.90;;;;;;4959439;29;20208;-86
2022/06/08 02:43:35;;;;;;;20.37;13.20;;;14.40;99.90;;;;;;4956203;29;20638;-88
2022/06/08 02:46:11;;;;;;;19.40;13.27;;;14.40;99.90;;;;;;4954203;29;20244;-88
2022/06/08 02:48:38;;;;;;;21.50;15.27;;;14.40;99.90;;;;;;4954355;28;20332;-88
2022/06/08 02:51:05;;;;;;;22.73;14.53;;;14.50;99.90;;;;;;4954777;29;20214;-89
2022/06/08 02:53:53;;;;;;;21.63;14.00;;;14.50;99.90;;;;;;4954662;29;20205;-87
2022/06/08 02:56:39;;;;;;;21.87;14.63;;;14.50;99.90;;;;;;4953887;29;20194;-89
2022/06/08 02:59:11;;;;;;;24.83;15.40;;;14.40;99.90;;;;;;4968181;28;20208;-88
2022/06/08 03:01:43;;;;;;;26.07;16.70;;;14.40;99.90;;;;;;4972968;28;20295;-88
2022/06/08 03:04:15;;;;;;;28.20;17.23;;;14.40;99.90;;;;;;4968249;28;20211;-89
2022/06/08 03:06:47;;;;;;;26.27;17.83;;;14.40;99.90;;;;;;4953299;29;20209;-88
2022/06/08 03:09:17;;;;;;;25.33;17.57;;;14.30;99.90;;;;;;4952845;29;20233;-89
2022/06/08 03:11:51;;;;;;;28.23;19.37;;;14.30;99.90;;;;;;4953246;29;20297;-87
2022/06/08 03:14:18;;;;;;;30.50;17.97;;;14.40;99.90;;;;;;4941304;29;20521;-88
2022/06/08 03:16:54;;;;;;;24.13;17.77;;;14.40;99.90;;;;;;4934320;29;20289;-87
2022/06/08 03:19:22;;;;;;;28.80;19.93;;;14.40;99.90;;;;;;4934500;29;20233;-88
2022/06/08 03:21:49;;;;;;;32.87;21.13;;;14.40;99.90;;;;;;4948159;29;20347;-88
2022/06/08 03:24:17;;;;;;;29.63;20.67;;;14.40;99.90;;;;;;4951309;29;20214;-88
2022/06/08 03:26:49;;;;;;;28.60;19.67;;;14.40;99.90;;;;;;4949991;29;20283;-88
2022/06/08 03:29:16;;;;;;;30.90;20.47;;;14.40;99.90;;;;;;4953206;28;20595;-87
2022/06/08 03:31:43;;;;;;;33.43;22.87;;;14.40;99.90;;;;;;4953975;29;20605;-88
2022/06/08 03:34:11;;;;;;;37.37;22.70;;;14.40;99.90;;;;;;4953639;29;20206;-88
2022/06/08 03:36:38;;;;;;;30.03;19.87;;;14.50;99.90;;;;;;4953915;28;20295;-89
2022/06/08 03:39:06;;;;;;;29.47;20.40;;;14.50;99.90;;;;;;4953436;29;20201;-88
2022/06/08 03:41:33;;;;;;;28.73;20.37;;;14.50;99.90;;;;;;4953435;29;20219;-88
2022/06/08 03:44:03;;;;;;;34.47;22.63;;;14.50;99.90;;;;;;4953356;28;20217;-89
2022/06/08 03:46:32;;;;;;;32.87;21.33;;;14.50;99.90;;;;;;4953406;29;20605;-89
2022/06/08 03:49:00;;;;;;;30.47;21.30;;;14.50;99.90;;;;;;4953713;28;20245;-88
2022/06/08 03:51:27;;;;;;;31.57;21.73;;;14.50;99.90;;;;;;4952953;28;20209;-89
2022/06/08 03:53:59;;;;;;;29.65;21.52;;;14.50;99.90;;;;;;4953088;29;20579;-88
2022/06/08 03:56:28;;;;;;;26.57;20.30;;;14.60;99.90;;;;;;4954712;28;20854;-88
2022/06/08 03:58:56;;;;;;;31.57;21.30;;;14.60;99.90;;;;;;4957128;29;20208;-88
2022/06/08 04:01:25;;;;;;;24.67;19.93;;;14.60;99.90;;;;;;4947440;28;20247;-92
2022/06/08 04:03:53;;;;;;;29.07;19.50;;;14.60;99.90;;;;;;4938518;29;20202;-88
2022/06/08 04:06:20;;;;;;;29.73;20.23;;;14.70;99.90;;;;;;4938176;29;20210;-90
2022/06/08 04:08:47;;;;;;;27.87;18.93;;;14.70;99.90;;;;;;4952316;29;20229;-89
2022/06/08 04:11:14;;;;;;;26.83;17.47;;;14.80;99.90;;;;;;4957214;29;20232;-88
2022/06/08 04:13:42;;;;;;;24.07;17.43;;;14.90;99.90;;;;;;4956922;29;20215;-88
2022/06/08 04:16:09;;;;;;;26.83;16.83;;;15.00;99.90;;;;;;4957031;29;20481;-89
2022/06/08 04:18:37;;;;;;;23.87;16.73;;;15.10;99.90;;;;;;4949901;29;20835;-89
2022/06/08 04:21:08;;;;;;;21.05;15.38;;;15.20;99.90;;;;;;4936765;29;20392;-89
2022/06/08 04:23:36;;;;;;;21.10;14.50;;;15.20;99.90;;;;;;4938165;29;20221;-87
2022/06/08 04:26:05;;;;;;;20.85;13.80;;;15.30;99.90;;;;;;4937936;29;20198;-89
2022/06/08 04:28:32;;;;;;;17.25;12.82;;;15.30;99.90;;;;;;4939748;29;20230;-89
2022/06/08 04:30:59;;;;;;;16.17;11.57;;;15.30;99.90;;;;;;4937160;29;20973;-89
2022/06/08 04:33:26;;;;;;;14.27;11.02;;;15.30;99.90;;;;;;4948254;28;20217;-88
2022/06/08 04:35:55;;;;;;;17.08;12.43;;;15.40;99.90;;;;;;4956090;29;20288;-89
2022/06/08 04:38:22;;;;;;;17.58;10.75;;;15.30;99.90;;;;;;4955047;29;20672;-89
2022/06/08 04:40:49;;;;;;;13.82;11.25;;;15.40;99.90;;;;;;4950625;29;20310;-90
2022/06/08 04:43:17;;;;;;;15.45;11.32;;;15.40;99.90;;;;;;4936464;29;20474;-90
2022/06/08 04:45:45;;;;;;;14.95;10.98;;;15.50;99.90;;;;;;4920467;29;20214;-91
2022/06/08 04:48:13;;;;;;;13.50;10.65;;;15.50;99.90;;;;;;4937362;29;20501;-91
2022/06/08 04:50:41;;;;;;;14.07;11.27;;;15.60;99.90;;;;;;4937045;29;20265;-89
2022/06/08 04:53:10;;;;;;;13.10;9.00;;;15.70;99.90;;;;;;4936830;29;20206;-91
2022/06/08 04:55:36;;;;;;;14.20;10.93;;;15.80;99.90;;;;;;4937201;29;20288;-90
2022/06/08 04:58:04;;;;;;;11.00;8.93;;;15.90;99.90;;;;;;4946832;29;20231;-89
2022/06/08 05:00:32;;;;;;;13.65;9.60;;;15.90;99.90;;;;;;4954138;29;20296;-92
2022/06/08 05:03:00;;;;;;;13.90;9.13;;;16.10;99.90;;;;;;4956284;29;20229;-90
2022/06/08 05:05:30;;;;;;;13.38;9.15;;;16.20;99.90;;;;;;4956472;29;20212;-92
2022/06/08 05:07:58;;;;;;;10.20;7.90;;;16.20;99.90;;;;;;4955588;28;20247;-91
2022/06/08 05:10:30;;;;;;;12.52;8.20;;;16.30;99.90;;;;;;4937944;29;20214;-91
2022/06/08 05:12:57;;;;;;;8.60;6.90;;;16.40;99.90;;;;;;4944701;28;20896;-92
2022/06/08 05:15:28;;;;;;;9.02;6.20;;;16.40;99.90;;;;;;4956683;29;20201;-90
2022/06/08 05:17:55;;;;;;;8.95;5.90;;;16.40;99.90;;;;;;4956023;29;20301;-91
2022/06/08 05:20:22;;;;;;;9.05;6.28;;;16.50;99.90;;;;;;4956572;29;20784;-92
2022/06/08 05:22:50;;;;;;;6.22;5.35;;;16.50;99.90;;;;;;4956822;29;20201;-91
2022/06/08 05:25:20;;;;;;;6.93;5.20;;;16.50;99.90;;;;;;4968015;28;20220;-91
2022/06/08 05:27:49;;;;;;;6.63;5.20;;;16.50;99.90;;;;;;4975859;28;20221;-89
2022/06/08 05:30:16;;;;;;;6.78;5.28;;;16.50;99.90;;;;;;4975378;28;20319;-90
2022/06/08 05:32:43;;;;;;;6.60;4.90;;;16.50;99.90;;;;;;4975575;28;20197;-92
2022/06/08 05:35:11;;;;;;;5.25;4.22;;;16.50;99.90;;;;;;4955273;28;20236;-90
2022/06/08 05:37:38;;;;;;;6.88;4.25;;;16.50;99.90;;;;;;4956018;29;20284;-90
2022/06/08 05:40:07;;;;;;;8.85;4.50;;;16.50;99.90;;;;;;4951268;29;20209;-91
2022/06/08 05:42:34;;;;;;;5.55;3.38;;;16.60;99.90;;;;;;4937281;29;20603;-91
2022/06/08 05:45:03;;;;;;;4.85;3.88;;;16.70;99.90;;;;;;4952543;28;20250;-90
2022/06/08 05:47:30;;;;;;;4.47;3.47;;;16.80;99.90;;;;;;4976669;28;20235;-91
2022/06/08 05:49:57;;;;;;;4.38;3.15;;;16.80;99.90;;;;;;4959408;28;20245;-89
2022/06/08 05:52:24;;;;;;;3.88;3.03;;;16.90;99.90;;;;;;4955565;29;20213;-91
2022/06/08 05:54:51;;;;;;;4.05;3.08;;;17.00;99.90;;;;;;4955724;29;20229;-95
2022/06/08 05:57:18;;;;;;;3.65;2.92;;;17.10;99.90;;;;;;4973012;28;20570;-91
2022/06/08 05:59:45;;;;;;;3.85;2.92;;;17.30;99.90;;;;;;4974381;28;20229;-90
2022/06/08 06:02:14;;;;;;;5.45;3.35;;;17.40;99.90;;;;;;4972599;28;20291;-91
2022/06/08 06:04:43;;;;;;;4.30;2.53;;;17.50;99.90;;;;;;4964491;28;20438;-92
2022/06/08 06:07:11;;;;;;;5.13;2.53;;;17.70;99.90;;;;;;4953754;29;20284;-92
2022/06/08 06:09:38;;;;;;;5.93;2.55;;;17.70;99.90;;;;;;4953691;28;20569;-92
2022/06/08 06:12:07;;;;;;;3.33;2.63;;;17.80;99.90;;;;;;4954806;29;20586;-88
2022/06/08 06:14:34;;;;;;;2.75;2.40;;;17.90;99.90;;;;;;4954297;29;20201;-88
2022/06/08 06:17:01;;;;;;;2.60;1.90;;;17.90;99.90;;;;;;4954228;29;20236;-88
2022/06/08 06:19:29;;;;;;;3.47;2.40;;;18.10;99.90;;;;;;4953801;28;20213;-88
2022/06/08 06:21:56;;;;;;;5.28;2.33;;;18.20;99.90;;;;;;4954187;29;20220;-88
2022/06/08 06:24:23;;;;;;;3.03;2.05;;;18.30;99.90;;;;;;4953758;28;21042;-88
2022/06/08 06:26:52;;;;;;;3.97;2.53;;;18.40;99.90;;;;;;4954479;29;20220;-87
2022/06/08 06:29:19;;;;;;;4.13;2.10;;;18.50;99.90;;;;;;4953951;28;20225;-88
2022/06/08 06:31:50;;;;;;;3.50;2.50;;;18.60;99.90;;;;;;4953079;29;20290;-86
2022/06/08 06:34:21;;;;;;;4.18;2.28;;;18.70;99.90;;;;;;4947574;28;20205;-86
2022/06/08 06:36:52;;;;;;;4.65;2.28;;;18.80;99.90;;;;;;4948797;28;20213;-87
2022/06/08 06:39:18;;;;;;;3.78;2.53;;;18.90;99.90;;;;;;4950250;28;20209;-88
2022/06/08 06:41:46;;;;;;;3.88;2.38;;;19.10;99.90;;;;;;4952079;29;20521;-88
2022/06/08 06:44:13;;;;;;;3.03;2.10;;;19.30;99.90;;;;;;4952202;28;20206;-88
2022/06/08 06:46:40;;;;;;;2.47;2.10;;;19.30;99.90;;;;;;4951497;29;20494;-85
2022/06/08 06:49:08;;;;;;;4.47;1.92;;;19.50;99.90;;;;;;4906798;28;1109763;-85
2022/06/08 06:51:35;;;;;;;3.72;2.20;;;19.70;99.90;;;;;;4943115;29;20213;-87
2022/06/08 06:54:04;;;;;;;4.85;2.33;;;19.70;99.90;;;;;;4943068;29;20344;-88
2022/06/08 06:56:32;;;;;;;3.08;2.25;;;19.70;99.90;;;;;;4941702;29;20689;-85
2022/06/08 06:58:59;;;;;;;2.30;1.60;;;19.50;99.90;;;;;;4948332;29;20225;-86
2022/06/08 07:01:27;;;;;;;4.43;1.95;;;19.50;99.90;;;;;;4951007;29;20311;-85
2022/06/08 07:03:54;;;;;;;2.75;2.30;;;19.60;99.90;;;;;;4940061;29;20309;-88
2022/06/08 07:06:47;;;;;;;4.78;2.15;;;19.70;99.90;;;;;;4937813;29;20611;-87
2022/06/08 07:09:15;;;;;;;3.67;1.88;;;19.70;99.90;;;;;;4949229;29;20233;-87
2022/06/08 07:11:43;;;;;;;4.57;1.95;;;19.80;99.90;;;;;;4953870;29;20216;-86
2022/06/08 07:14:13;;;;;;;4.65;2.53;;;19.90;99.90;;;;;;4954148;29;20202;-87
2022/06/08 07:16:40;;;;;;;6.10;2.63;;;20.00;99.90;;;;;;4941189;29;20690;-89
2022/06/08 07:19:08;;;;;;;6.68;2.25;;;20.20;99.90;;;;;;4934046;29;20208;-88
2022/06/08 07:21:36;;;;;;;3.42;2.05;;;20.30;99.90;;;;;;4933487;29;20212;-93
2022/06/08 07:24:03;;;;;;;4.53;2.35;;;20.40;99.90;;;;;;4934661;29;20245;-90
2022/06/08 07:26:32;;;;;;;2.70;2.10;;;20.60;99.90;;;;;;4922349;29;20258;-88
2022/06/08 07:28:59;;;;;;;4.60;2.65;;;20.70;99.90;;;;;;4916809;29;20290;-89
2022/06/08 07:31:27;;;;;;;4.15;2.50;;;20.80;99.90;;;;;;4917746;29;20283;-92
2022/06/08 07:33:56;;;;;;;5.32;3.00;;;20.70;99.90;;;;;;4940668;29;20212;-89
2022/06/08 07:36:23;;;;;;;4.22;2.25;;;20.70;99.90;;;;;;4941183;29;20229;-96
2022/06/08 07:38:50;;;;;;;3.10;1.63;;;20.60;99.90;;;;;;4940334;29;20206;-92
2022/06/08 07:41:17;;;;;;;4.63;2.00;;;20.70;99.90;;;;;;4940457;29;20233;-91
2022/06/08 07:43:45;;;;;;;2.35;1.83;;;20.60;99.90;;;;;;4940061;29;20245;-90
2022/06/08 07:46:14;;;;;;;3.35;2.50;;;20.60;99.90;;;;;;4926824;29;20214;-93
2022/06/08 07:51:25;;;;;;;6.57;2.70;;;20.50;99.90;;;;;;4943539;29;20328;-91
2022/06/08 07:53:52;;;;;;;5.47;2.63;;;20.40;99.90;;;;;;4959110;29;20563;-91
2022/06/08 07:56:23;;;;;;;5.72;3.15;;;20.40;99.90;;;;;;4959408;29;20268;-90
2022/06/08 07:58:51;;;;;;;6.30;2.80;;;20.20;99.90;;;;;;4957865;28;20670;-87
2022/06/08 08:01:18;;;;;;;4.57;3.28;;;20.20;99.90;;;;;;4940744;29;20206;-91
2022/06/08 08:03:45;;;;;;;4.25;3.00;;;20.20;99.90;;;;;;4938038;29;20252;-94
2022/06/08 08:06:14;;;;;;;5.65;2.90;;;20.20;99.90;;;;;;4939607;28;20234;-95
2022/06/08 08:08:41;;;;;;;4.03;2.53;;;20.10;99.90;;;;;;4978067;28;20210;-90
2022/06/08 08:11:09;;;;;;;4.18;2.63;;;20.10;99.90;;;;;;4977062;28;20263;-89
2022/06/08 08:13:37;;;;;;;3.63;3.20;;;20.30;99.90;;;;;;4978128;28;20213;-89
2022/06/08 08:16:06;;;;;;;4.97;3.15;;;20.20;99.90;;;;;;4977409;28;20208;-93
2022/06/08 08:18:34;;;;;;;5.05;2.65;;;20.20;99.90;;;;;;4940179;29;20285;-87
2022/06/08 08:21:01;;;;;;;5.28;2.70;;;20.20;99.90;;;;;;4951212;29;20206;-94
2022/06/08 08:23:28;;;;;;;5.85;3.17;;;20.30;99.90;;;;;;4960113;29;20200;-95
2022/06/08 08:25:58;;;;;;;7.72;3.58;;;20.20;99.90;;;;;;4959755;29;20221;-91
2022/06/08 08:28:24;;;;;;;4.75;3.30;;;20.50;99.90;;;;;;4959792;29;20252;-93
2022/06/08 08:30:52;;;;;;;3.58;3.10;;;20.60;99.90;;;;;;4960608;29;20220;-87
2022/06/08 08:33:20;;;;;;;5.13;2.92;;;20.70;99.90;;;;;;4959565;29;20288;-89
2022/06/08 08:35:47;;;;;;;6.47;2.90;;;20.70;99.90;;;;;;4943669;29;20208;-89
2022/06/08 08:38:14;;;;;;;4.65;3.22;;;20.70;99.90;;;;;;4968031;28;20292;-91
2022/06/08 08:40:48;;;;;;;5.85;3.75;;;20.80;99.90;;;;;;4980164;28;20243;-93
2022/06/08 08:43:19;;;;;;;7.90;3.92;;;20.70;99.90;;;;;;4960401;28;20204;-93
2022/06/08 08:46:24;;;;;;;4.78;3.38;;;20.70;99.90;;;;;;4982842;28;20370;-90
2022/06/08 08:48:58;;;;;;;4.22;3.80;;;20.60;99.90;;;;;;4955192;28;20257;-93
2022/06/08 08:51:28;;;;;;;3.38;3.05;;;20.50;99.90;;;;;;4944745;29;20210;-95
2022/06/08 08:54:26;;;;;;;6.32;3.10;;;20.40;99.90;;;;;;4949756;29;20698;-96
2022/06/08 08:57:01;;;;;;;4.20;3.67;;;20.60;99.90;;;;;;4962221;29;20216;-93
2022/06/08 08:59:31;;;;;;;4.80;3.67;;;20.60;99.90;;;;;;4960496;28;20269;-92
2022/06/08 09:02:00;;;;;;;5.85;4.20;;;20.60;99.90;;;;;;4956547;29;20193;-90
2022/06/08 09:04:32;;;;;;;4.72;4.32;;;20.60;99.90;;;;;;4955788;29;20298;-90
2022/06/08 09:07:13;;;;;;;6.13;4.70;;;20.50;99.90;;;;;;4963774;23;20229;-92
2022/06/08 09:09:42;;;;;;;7.82;4.15;;;20.50;99.90;;;;;;4959020;23;20245;-92
2022/06/08 09:12:14;;;;;;;12.02;5.40;;;20.60;99.90;;;;;;4935812;29;20233;-96
2022/06/08 09:14:50;;;;;;;6.15;4.40;;;20.50;99.90;;;;;;4926143;29;20203;-90
2022/06/08 09:17:20;;;;;;;6.57;4.80;;;20.30;99.90;;;;;;4916546;29;20206;-91
2022/06/08 09:19:50;;;;;;;6.82;5.15;;;20.40;99.90;;;;;;4915762;29;20199;-91
2022/06/08 09:22:23;;;;;;;8.95;5.75;;;20.20;99.90;;;;;;4935267;29;20221;-91
2022/06/08 09:24:53;;;;;;;8.93;5.75;;;20.20;99.90;;;;;;4936299;29;20285;-94
2022/06/08 09:27:23;;;;;;;10.18;6.43;;;20.00;99.90;;;;;;4936551;29;20206;-91
2022/06/08 09:30:12;;;;;;;7.60;6.53;;;19.80;99.90;;;;;;4936019;29;20232;-91
2022/06/08 09:32:45;;;;;;;8.75;6.68;;;19.60;99.90;;;;;;4936960;29;20252;-92
2022/06/08 09:35:27;;;;;;;6.32;5.72;;;19.40;99.90;;;;;;4936481;29;20216;-90
2022/06/08 09:37:57;;;;;;;9.50;6.63;;;19.40;99.90;;;;;;4933797;29;20209;-91
2022/06/08 09:40:40;;;;;;;6.95;6.25;;;19.40;99.90;;;;;;4933226;29;20202;-88
2022/06/08 09:43:43;;;;;;;8.65;6.10;;;19.10;99.90;;;;;;4932864;29;20214;-89
2022/06/08 09:46:15;;;;;;;5.88;5.38;;;19.00;99.90;;;;;;4944302;29;20197;-86
2022/06/08 09:51:59;;;;;;;5.25;4.70;;;18.90;99.90;;;;;;4935016;29;20591;-88
2022/06/08 09:54:38;;;;;;;5.55;4.07;;;18.80;99.90;;;;;;4934255;29;20213;-90
2022/06/08 09:57:26;;;;;;;7.35;5.35;;;18.90;99.90;;;;;;4934588;29;20212;-90
2022/06/08 10:00:03;;;;;;;5.80;4.55;;;18.90;99.90;;;;;;4915688;29;21033;-88
2022/06/08 10:02:41;;;;;;;5.85;3.65;;;18.90;99.90;;;;;;4915720;29;20297;-85
2022/06/08 10:05:19;;;;;;;4.88;4.43;;;19.00;99.90;;;;;;4952016;29;20213;-87
2022/06/08 10:08:09;;;;;;;5.07;4.00;;;19.10;99.90;;;;;;4940427;29;20722;-88
2022/06/08 10:10:42;;;;;;;6.22;4.82;;;19.10;99.90;;;;;;4934024;28;20276;-87
2022/06/08 10:13:18;;;;;;;3.55;2.85;;;19.20;99.90;;;;;;4933599;29;20202;-86
2022/06/08 10:15:49;;;;;;;7.75;5.50;;;19.30;99.90;;;;;;4933988;29;20221;-87
2022/06/08 10:18:20;;;;;;;6.45;4.78;;;19.40;99.90;;;;;;4933656;29;20206;-88
2022/06/08 10:20:51;;;;;;;4.72;4.20;;;19.50;99.90;;;;;;4933434;29;20666;-85
2022/06/08 10:23:41;;;;;;;7.97;6.38;;;19.50;99.90;;;;;;4933156;29;20216;-86
2022/06/08 10:26:14;;;;;;;7.05;5.60;;;19.50;99.90;;;;;;4933389;29;20222;-91
2022/06/08 10:28:47;;;;;;;6.00;4.78;;;19.40;99.90;;;;;;4933198;29;20253;-83
2022/06/08 10:31:19;;;;;;;8.38;7.38;;;19.40;99.90;;;;;;4934438;29;20221;-86
2022/06/08 10:33:54;;;;;;;10.52;7.63;;;19.40;99.90;;;;;;4935958;29;20213;-89
2022/06/08 10:36:21;;;;;;;12.73;7.95;;;19.20;99.90;;;;;;4953635;29;20602;-87
2022/06/08 10:38:50;;;;;;;12.13;7.07;;;19.10;99.90;;;;;;4943581;29;20603;-87
2022/06/08 10:44:36;;;;;;;5.65;4.50;;;18.80;99.90;;;;;;4932374;29;20855;-85
2022/06/08 10:47:25;;;;;;;6.20;5.60;;;18.60;99.90;;;;;;4934625;29;20226;-87
2022/06/08 10:49:54;;;;;;;7.53;5.60;;;18.60;99.90;;;;;;4934911;29;20286;-86
2022/06/08 10:52:38;;;;;;;7.65;5.75;;;18.50;99.90;;;;;;4935729;29;20213;-86
2022/06/08 10:55:42;;;;;;;8.77;6.85;;;18.50;99.90;;;;;;4934795;29;20206;-89
2022/06/08 10:58:13;;;;;;;8.18;6.63;;;18.50;99.90;;;;;;4941555;23;20654;-88
2022/06/08 11:01:22;;;;;;;8.10;7.40;;;18.40;99.90;;;;;;4933597;29;20209;-88
2022/06/08 11:03:58;;;;;;;7.45;6.40;;;18.40;99.90;;;;;;4915036;29;20199;-87
2022/06/08 11:06:57;;;;;;;7.07;6.35;;;18.40;99.90;;;;;;4914879;29;20202;-90
2022/06/08 11:09:44;;;;;;;7.63;6.07;;;18.20;99.90;;;;;;4903358;29;20231;-87
2022/06/08 11:12:27;;;;;;;6.85;5.82;;;18.20;99.90;;;;;;4925906;29;20236;-86
2022/06/08 11:14:59;;;;;;;6.60;6.10;;;18.30;99.90;;;;;;4932675;29;20525;-86
2022/06/08 11:17:30;;;;;;;7.35;6.57;;;18.30;99.90;;;;;;4915652;29;20223;-87
2022/06/08 11:20:03;;;;;;;7.07;6.05;;;18.30;99.90;;;;;;4927522;29;20197;-86
2022/06/08 11:22:33;;;;;;;6.72;5.63;;;18.30;99.90;;;;;;4933549;29;20678;-87
2022/06/08 11:25:04;;;;;;;6.57;5.60;;;18.30;99.90;;;;;;4933135;29;20284;-85
2022/06/08 11:27:33;;;;;;;8.05;6.18;;;18.30;99.90;;;;;;4934009;29;20202;-89
2022/06/08 11:30:07;;;;;;;7.90;4.63;;;18.20;99.90;;;;;;4933185;29;20210;-91
2022/06/08 11:33:15;;;;;;;6.28;4.45;;;18.10;99.90;;;;;;4934462;29;20233;-89
2022/06/08 11:36:17;;;;;;;3.63;2.67;;;18.00;99.90;;;;;;4933188;29;20228;-89
2022/06/08 11:39:01;;;;;;;5.63;2.33;;;17.90;99.90;;;;;;4933888;29;20289;-86
2022/06/08 11:41:35;;;;;;;4.10;2.20;;;17.70;99.90;;;;;;4933831;29;20198;-87
2022/06/08 11:44:11;;;;;;;6.13;2.97;;;17.60;99.90;;;;;;4933023;29;20220;-91
2022/06/08 11:46:40;;;;;;;4.88;2.15;;;17.50;99.90;;;;;;4913521;29;20309;-88
2022/06/08 11:49:28;;;;;;;4.93;2.58;;;17.50;99.90;;;;;;4921182;29;20306;-91
2022/06/08 11:51:55;;;;;;;6.30;2.88;;;17.60;99.90;;;;;;4933910;29;20222;-92
2022/06/08 11:54:25;;;;;;;5.10;2.40;;;17.60;99.90;;;;;;4933844;29;20218;-90
2022/06/08 11:57:04;;;;;;;4.13;2.00;;;17.60;99.90;;;;;;4919413;29;20219;-88
2022/06/08 11:59:36;;;;;;;4.10;1.80;;;17.60;99.90;;;;;;4927890;29;20571;-90
2022/06/08 12:02:14;;;;;;;3.00;1.70;;;17.70;99.90;;;;;;4933639;29;20513;-87
2022/06/08 12:04:47;;;;;;;3.17;1.83;;;17.70;99.90;;;;;;4933440;29;20256;-91
2022/06/08 12:07:37;;;;;;;5.05;2.17;;;17.60;99.90;;;;;;4933521;29;20217;-90
2022/06/08 12:10:06;;;;;;;2.47;1.52;;;17.70;99.90;;;;;;4933942;29;20238;-86
2022/06/08 12:12:33;;;;;;;4.28;1.92;;;17.70;99.90;;;;;;4933561;29;20234;-90
2022/06/08 12:15:26;;;;;;;4.03;1.83;;;17.70;99.90;;;;;;4938408;29;20634;-91
2022/06/08 12:17:52;;;;;;;4.45;1.60;;;17.70;99.90;;;;;;4954223;28;20221;-87
2022/06/08 12:20:34;;;;;;;3.28;2.25;;;17.80;99.90;;;;;;4955777;29;20819;-86
2022/06/08 12:23:01;;;;;;;3.10;1.52;;;17.80;99.90;;;;;;4951930;29;20218;-90
2022/06/08 12:25:30;;;;;;;5.53;2.08;;;17.90;99.90;;;;;;4937194;29;20538;-90
2022/06/08 12:27:59;;;;;;;3.38;1.98;;;17.90;99.90;;;;;;4937262;29;20317;-85
2022/06/08 12:30:30;;;;;;;2.40;1.60;;;17.80;99.90;;;;;;4945477;29;20950;-89
2022/06/08 12:33:01;;;;;;;2.28;1.48;;;17.90;99.90;;;;;;4953478;29;20235;-89
2022/06/08 12:35:35;;;;;;;3.35;2.10;;;18.00;99.90;;;;;;4936784;29;20277;-86
2022/06/08 12:38:17;;;;;;;2.85;1.70;;;18.10;99.90;;;;;;4936594;29;20260;-91
2022/06/08 12:40:59;;;;;;;3.58;1.75;;;18.10;99.90;;;;;;4937748;29;20224;-88
2022/06/08 12:43:36;;;;;;;6.25;1.60;;;18.10;99.90;;;;;;4936901;29;20228;-92
2022/06/08 12:46:22;;;;;;;2.75;1.50;;;18.10;99.90;;;;;;4935238;29;20218;-88
2022/06/08 12:48:57;;;;;;;2.35;1.45;;;18.20;99.90;;;;;;4934371;29;20792;-89
2022/06/08 12:51:34;;;;;;;1.90;1.30;;;18.30;99.90;;;;;;4931838;29;20734;-89
2022/06/08 12:54:02;;;;;;;4.22;1.60;;;18.40;99.90;;;;;;4951094;29;20299;-88
2022/06/08 12:56:30;;;;;;;2.78;1.40;;;18.40;99.90;;;;;;4955535;29;20213;-90
2022/06/08 12:58:58;;;;;;;2.05;1.42;;;18.40;99.90;;;;;;4952381;29;20996;-90
2022/06/08 13:01:27;;;;;;;2.33;1.20;;;18.30;99.90;;;;;;4935521;29;20209;-89
2022/06/08 13:03:54;;;;;;;2.97;1.50;;;18.20;99.90;;;;;;4942295;29;20569;-90
2022/06/08 13:06:21;;;;;;;2.47;1.50;;;18.20;99.90;;;;;;4956554;29;20304;-92
2022/06/08 13:08:50;;;;;;;2.10;1.52;;;18.10;99.90;;;;;;4955693;29;20261;-91
2022/06/08 13:11:21;;;;;;;2.97;1.50;;;18.00;99.90;;;;;;4954919;29;20225;-93
2022/06/08 13:13:49;;;;;;;2.22;1.48;;;18.00;99.90;;;;;;4946308;29;20292;-95
2022/06/08 13:16:21;;;;;;;3.63;1.70;;;18.10;99.90;;;;;;4936498;29;20210;-90
2022/06/08 13:18:49;;;;;;;2.85;1.25;;;18.00;99.90;;;;;;4936789;29;20289;-90